sensor_id;sensor_type;location;lat;lon;timestamp;temperature;humidity
72940;DHT22;61094;51.154;13.570;2023-07-13T00:04:24;22.20;51.40
72940;DHT22;61094;51.154;13.570;2023-07-13T00:09:26;21.90;53.10
72940;DHT22;61094;51.154;13.570;2023-07-13T00:14:29;21.70;53.70
72940;DHT22;61094;51.154;13.570;2023-07-13T00:19:31;21.60;53.80
72940;DHT22;61094;51.154;13.570;2023-07-13T00:24:32;21.60;56.80
72940;DHT22;61094;51.154;13.570;2023-07-13T00:29:37;21.30;58.00
72940;DHT22;61094;51.154;13.570;2023-07-13T00:34:39;21.20;62.70
72940;DHT22;61094;51.154;13.570;2023-07-13T00:39:41;21.10;65.10
72940;DHT22;61094;51.154;13.570;2023-07-13T00:45:07;21.10;66.50
72940;DHT22;61094;51.154;13.570;2023-07-13T00:50:12;21.00;66.00
72940;DHT22;61094;51.154;13.570;2023-07-13T00:55:16;20.90;60.20
72940;DHT22;61094;51.154;13.570;2023-07-13T01:00:20;20.90;66.20
72940;DHT22;61094;51.154;13.570;2023-07-13T01:05:24;20.80;67.40
72940;DHT22;61094;51.154;13.570;2023-07-13T01:10:27;20.80;66.20
72940;DHT22;61094;51.154;13.570;2023-07-13T01:15:36;20.70;67.10
72940;DHT22;61094;51.154;13.570;2023-07-13T01:20:39;20.60;66.10
72940;DHT22;61094;51.154;13.570;2023-07-13T01:25:42;20.60;71.40
72940;DHT22;61094;51.154;13.570;2023-07-13T01:30:45;20.60;71.30
72940;DHT22;61094;51.154;13.570;2023-07-13T01:35:47;20.70;69.50
72940;DHT22;61094;51.154;13.570;2023-07-13T01:40:52;20.70;68.10
72940;DHT22;61094;51.154;13.570;2023-07-13T01:45:54;20.70;72.00
72940;DHT22;61094;51.154;13.570;2023-07-13T01:50:55;20.50;73.00
72940;DHT22;61094;51.154;13.570;2023-07-13T01:55:58;20.30;77.60
72940;DHT22;61094;51.154;13.570;2023-07-13T02:01:00;20.30;79.40
72940;DHT22;61094;51.154;13.570;2023-07-13T02:06:02;20.20;82.30
72940;DHT22;61094;51.154;13.570;2023-07-13T02:11:06;20.10;89.50
72940;DHT22;61094;51.154;13.570;2023-07-13T02:16:08;20.00;78.40
72940;DHT22;61094;51.154;13.570;2023-07-13T02:21:10;20.00;90.00
72940;DHT22;61094;51.154;13.570;2023-07-13T02:26:13;19.90;85.80
72940;DHT22;61094;51.154;13.570;2023-07-13T02:31:15;19.90;90.90
72940;DHT22;61094;51.154;13.570;2023-07-13T02:36:17;19.80;91.00
72940;DHT22;61094;51.154;13.570;2023-07-13T02:41:21;19.60;92.10
72940;DHT22;61094;51.154;13.570;2023-07-13T02:46:23;19.50;92.00
72940;DHT22;61094;51.154;13.570;2023-07-13T02:51:26;19.40;91.80
72940;DHT22;61094;51.154;13.570;2023-07-13T02:56:31;19.40;92.70
72940;DHT22;61094;51.154;13.570;2023-07-13T03:01:33;19.40;91.90
72940;DHT22;61094;51.154;13.570;2023-07-13T03:06:36;19.30;91.00
72940;DHT22;61094;51.154;13.570;2023-07-13T03:11:40;19.20;92.90
72940;DHT22;61094;51.154;13.570;2023-07-13T03:16:54;19.30;92.40
72940;DHT22;61094;51.154;13.570;2023-07-13T03:21:59;19.30;93.70
72940;DHT22;61094;51.154;13.570;2023-07-13T03:27:04;19.30;92.30
72940;DHT22;61094;51.154;13.570;2023-07-13T03:32:09;19.30;94.70
72940;DHT22;61094;51.154;13.570;2023-07-13T03:37:12;19.40;94.40
72940;DHT22;61094;51.154;13.570;2023-07-13T03:42:16;19.40;93.40
72940;DHT22;61094;51.154;13.570;2023-07-13T03:47:18;19.40;94.00
72940;DHT22;61094;51.154;13.570;2023-07-13T03:52:20;19.40;93.90
72940;DHT22;61094;51.154;13.570;2023-07-13T03:57:24;19.30;94.60
72940;DHT22;61094;51.154;13.570;2023-07-13T04:02:25;19.10;95.20
72940;DHT22;61094;51.154;13.570;2023-07-13T04:07:28;19.10;94.60
72940;DHT22;61094;51.154;13.570;2023-07-13T04:12:31;19.00;97.00
72940;DHT22;61094;51.154;13.570;2023-07-13T04:17:33;18.80;97.40
72940;DHT22;61094;51.154;13.570;2023-07-13T04:22:34;18.80;97.50
72940;DHT22;61094;51.154;13.570;2023-07-13T04:27:37;18.90;97.00
72940;DHT22;61094;51.154;13.570;2023-07-13T04:32:39;18.90;97.30
72940;DHT22;61094;51.154;13.570;2023-07-13T04:37:41;19.10;96.90
72940;DHT22;61094;51.154;13.570;2023-07-13T04:42:44;19.20;96.90
72940;DHT22;61094;51.154;13.570;2023-07-13T04:47:46;19.10;97.00
72940;DHT22;61094;51.154;13.570;2023-07-13T04:52:48;18.90;99.40
72940;DHT22;61094;51.154;13.570;2023-07-13T04:57:52;18.90;98.20
72940;DHT22;61094;51.154;13.570;2023-07-13T05:02:54;19.00;98.70
72940;DHT22;61094;51.154;13.570;2023-07-13T05:07:56;19.10;97.00
72940;DHT22;61094;51.154;13.570;2023-07-13T05:12:59;19.30;95.90
72940;DHT22;61094;51.154;13.570;2023-07-13T05:18:00;19.50;96.60
72940;DHT22;61094;51.154;13.570;2023-07-13T05:23:02;19.80;94.80
72940;DHT22;61094;51.154;13.570;2023-07-13T05:28:05;20.10;94.20
72940;DHT22;61094;51.154;13.570;2023-07-13T05:33:07;20.10;91.80
72940;DHT22;61094;51.154;13.570;2023-07-13T05:38:08;20.10;92.30
72940;DHT22;61094;51.154;13.570;2023-07-13T05:43:12;20.20;92.00
72940;DHT22;61094;51.154;13.570;2023-07-13T05:48:14;20.30;91.20
72940;DHT22;61094;51.154;13.570;2023-07-13T05:53:15;20.30;91.40
72940;DHT22;61094;51.154;13.570;2023-07-13T05:58:19;20.40;91.50
72940;DHT22;61094;51.154;13.570;2023-07-13T06:03:20;20.50;91.00
72940;DHT22;61094;51.154;13.570;2023-07-13T06:08:22;20.60;90.60
72940;DHT22;61094;51.154;13.570;2023-07-13T06:13:25;20.80;90.10
72940;DHT22;61094;51.154;13.570;2023-07-13T06:18:27;21.00;85.60
72940;DHT22;61094;51.154;13.570;2023-07-13T06:23:28;21.20;84.70
72940;DHT22;61094;51.154;13.570;2023-07-13T06:28:32;21.40;76.10
72940;DHT22;61094;51.154;13.570;2023-07-13T06:33:34;21.60;69.90
72940;DHT22;61094;51.154;13.570;2023-07-13T06:38:36;21.80;68.70
72940;DHT22;61094;51.154;13.570;2023-07-13T06:43:39;21.90;66.20
72940;DHT22;61094;51.154;13.570;2023-07-13T06:48:41;22.00;65.40
72940;DHT22;61094;51.154;13.570;2023-07-13T06:53:43;22.20;64.70
72940;DHT22;61094;51.154;13.570;2023-07-13T06:58:46;22.30;64.20
72940;DHT22;61094;51.154;13.570;2023-07-13T07:03:47;22.40;63.40
72940;DHT22;61094;51.154;13.570;2023-07-13T07:08:50;22.30;62.90
72940;DHT22;61094;51.154;13.570;2023-07-13T07:13:53;22.30;61.10
72940;DHT22;61094;51.154;13.570;2023-07-13T07:18:55;22.40;60.80
72940;DHT22;61094;51.154;13.570;2023-07-13T07:23:57;22.50;57.20
72940;DHT22;61094;51.154;13.570;2023-07-13T07:29:01;22.70;55.30
72940;DHT22;61094;51.154;13.570;2023-07-13T07:34:03;23.00;48.70
72940;DHT22;61094;51.154;13.570;2023-07-13T07:39:05;23.00;52.50
72940;DHT22;61094;51.154;13.570;2023-07-13T07:44:08;23.10;45.80
72940;DHT22;61094;51.154;13.570;2023-07-13T07:49:10;23.60;48.50
72940;DHT22;61094;51.154;13.570;2023-07-13T07:54:11;24.10;45.50
72940;DHT22;61094;51.154;13.570;2023-07-13T07:59:15;24.50;43.50
72940;DHT22;61094;51.154;13.570;2023-07-13T08:04:16;25.10;41.00
72940;DHT22;61094;51.154;13.570;2023-07-13T08:09:18;25.20;42.10
72940;DHT22;61094;51.154;13.570;2023-07-13T08:14:21;25.50;40.90
72940;DHT22;61094;51.154;13.570;2023-07-13T08:19:23;25.80;41.00
72940;DHT22;61094;51.154;13.570;2023-07-13T08:24:24;26.20;38.30
72940;DHT22;61094;51.154;13.570;2023-07-13T08:29:27;26.40;38.50
72940;DHT22;61094;51.154;13.570;2023-07-13T08:34:32;26.60;38.60
72940;DHT22;61094;51.154;13.570;2023-07-13T08:39:33;27.00;36.70
72940;DHT22;61094;51.154;13.570;2023-07-13T08:44:43;27.60;36.60
72940;DHT22;61094;51.154;13.570;2023-07-13T08:49:48;28.00;35.00
72940;DHT22;61094;51.154;13.570;2023-07-13T08:54:51;27.70;34.50
72940;DHT22;61094;51.154;13.570;2023-07-13T08:59:55;27.50;35.70
72940;DHT22;61094;51.154;13.570;2023-07-13T09:05:00;27.50;35.30
72940;DHT22;61094;51.154;13.570;2023-07-13T09:10:11;27.40;35.60
72940;DHT22;61094;51.154;13.570;2023-07-13T09:15:23;27.40;35.40
72940;DHT22;61094;51.154;13.570;2023-07-13T09:20:29;27.60;35.30
72940;DHT22;61094;51.154;13.570;2023-07-13T09:25:34;27.40;34.30
72940;DHT22;61094;51.154;13.570;2023-07-13T09:30:45;27.20;34.70
72940;DHT22;61094;51.154;13.570;2023-07-13T09:35:48;27.60;35.00
72940;DHT22;61094;51.154;13.570;2023-07-13T09:40:59;28.10;33.60
72940;DHT22;61094;51.154;13.570;2023-07-13T09:46:03;28.30;32.80
72940;DHT22;61094;51.154;13.570;2023-07-13T09:51:12;28.50;32.90
72940;DHT22;61094;51.154;13.570;2023-07-13T09:56:20;28.20;32.10
72940;DHT22;61094;51.154;13.570;2023-07-13T10:01:34;28.20;32.40
72940;DHT22;61094;51.154;13.570;2023-07-13T10:06:36;28.30;31.80
72940;DHT22;61094;51.154;13.570;2023-07-13T10:11:39;28.40;32.70
72940;DHT22;61094;51.154;13.570;2023-07-13T10:16:45;28.50;31.70
72940;DHT22;61094;51.154;13.570;2023-07-13T10:21:50;28.60;31.90
72940;DHT22;61094;51.154;13.570;2023-07-13T10:26:58;28.20;31.20
72940;DHT22;61094;51.154;13.570;2023-07-13T10:32:09;27.70;32.60
72940;DHT22;61094;51.154;13.570;2023-07-13T10:37:16;27.60;32.60
72940;DHT22;61094;51.154;13.570;2023-07-13T10:42:28;27.50;32.60
72940;DHT22;61094;51.154;13.570;2023-07-13T10:47:32;27.20;33.20
72940;DHT22;61094;51.154;13.570;2023-07-13T10:52:46;27.20;33.20
72940;DHT22;61094;51.154;13.570;2023-07-13T10:57:48;27.10;32.50
72940;DHT22;61094;51.154;13.570;2023-07-13T11:02:57;27.50;32.50
72940;DHT22;61094;51.154;13.570;2023-07-13T11:08:15;27.70;32.20
72940;DHT22;61094;51.154;13.570;2023-07-13T11:19:38;28.20;32.10
72940;DHT22;61094;51.154;13.570;2023-07-13T11:24:59;27.80;32.30
72940;DHT22;61094;51.154;13.570;2023-07-13T11:35:27;27.40;31.60
72940;DHT22;61094;51.154;13.570;2023-07-13T11:40:30;28.10;31.20
72940;DHT22;61094;51.154;13.570;2023-07-13T11:45:32;28.40;30.90
72940;DHT22;61094;51.154;13.570;2023-07-13T11:50:35;28.50;30.50
72940;DHT22;61094;51.154;13.570;2023-07-13T11:55:38;29.00;30.20
72940;DHT22;61094;51.154;13.570;2023-07-13T12:00:40;29.30;29.20
72940;DHT22;61094;51.154;13.570;2023-07-13T12:05:57;29.50;29.50
72940;DHT22;61094;51.154;13.570;2023-07-13T12:11:03;29.50;28.40
72940;DHT22;61094;51.154;13.570;2023-07-13T12:16:15;29.50;28.40
72940;DHT22;61094;51.154;13.570;2023-07-13T12:21:29;29.20;28.50
72940;DHT22;61094;51.154;13.570;2023-07-13T12:26:32;29.10;29.20
72940;DHT22;61094;51.154;13.570;2023-07-13T12:31:36;28.70;29.10
72940;DHT22;61094;51.154;13.570;2023-07-13T12:36:45;28.50;29.80
72940;DHT22;61094;51.154;13.570;2023-07-13T12:41:49;28.50;29.60
72940;DHT22;61094;51.154;13.570;2023-07-13T12:46:53;28.60;29.70
72940;DHT22;61094;51.154;13.570;2023-07-13T12:51:59;28.50;28.90
72940;DHT22;61094;51.154;13.570;2023-07-13T12:57:01;28.40;29.30
72940;DHT22;61094;51.154;13.570;2023-07-13T13:02:21;28.60;29.40
72940;DHT22;61094;51.154;13.570;2023-07-13T13:07:25;28.70;29.60
72940;DHT22;61094;51.154;13.570;2023-07-13T13:12:27;28.60;29.50
72940;DHT22;61094;51.154;13.570;2023-07-13T13:17:30;29.00;29.30
72940;DHT22;61094;51.154;13.570;2023-07-13T13:22:34;28.90;29.30
72940;DHT22;61094;51.154;13.570;2023-07-13T13:27:36;28.80;29.30
72940;DHT22;61094;51.154;13.570;2023-07-13T13:32:38;28.70;29.60
72940;DHT22;61094;51.154;13.570;2023-07-13T13:37:41;28.80;29.50
72940;DHT22;61094;51.154;13.570;2023-07-13T13:42:43;28.80;29.20
72940;DHT22;61094;51.154;13.570;2023-07-13T13:47:45;29.00;29.60
72940;DHT22;61094;51.154;13.570;2023-07-13T13:52:50;29.50;29.20
72940;DHT22;61094;51.154;13.570;2023-07-13T13:57:52;29.30;28.90
72940;DHT22;61094;51.154;13.570;2023-07-13T14:02:54;29.00;29.50
72940;DHT22;61094;51.154;13.570;2023-07-13T14:07:59;28.80;28.70
72940;DHT22;61094;51.154;13.570;2023-07-13T14:13:01;28.50;29.00
72940;DHT22;61094;51.154;13.570;2023-07-13T14:18:03;28.70;28.90
72940;DHT22;61094;51.154;13.570;2023-07-13T14:23:06;29.00;28.50
72940;DHT22;61094;51.154;13.570;2023-07-13T14:28:20;29.30;28.50
72940;DHT22;61094;51.154;13.570;2023-07-13T14:33:23;29.70;27.40
72940;DHT22;61094;51.154;13.570;2023-07-13T14:38:27;29.00;27.70
72940;DHT22;61094;51.154;13.570;2023-07-13T14:43:28;28.50;28.10
72940;DHT22;61094;51.154;13.570;2023-07-13T14:48:30;28.20;28.70
72940;DHT22;61094;51.154;13.570;2023-07-13T14:53:33;28.30;28.30
72940;DHT22;61094;51.154;13.570;2023-07-13T14:58:36;28.40;28.30
72940;DHT22;61094;51.154;13.570;2023-07-13T15:03:44;28.70;28.00
72940;DHT22;61094;51.154;13.570;2023-07-13T15:08:47;28.80;28.20
72940;DHT22;61094;51.154;13.570;2023-07-13T15:13:49;29.00;27.20
72940;DHT22;61094;51.154;13.570;2023-07-13T15:18:52;29.10;26.90
72940;DHT22;61094;51.154;13.570;2023-07-13T15:23:56;29.10;27.40
72940;DHT22;61094;51.154;13.570;2023-07-13T15:28:58;28.80;26.40
72940;DHT22;61094;51.154;13.570;2023-07-13T15:34:00;28.60;26.70
72940;DHT22;61094;51.154;13.570;2023-07-13T15:39:03;28.40;27.00
72940;DHT22;61094;51.154;13.570;2023-07-13T15:44:22;28.50;27.10
72940;DHT22;61094;51.154;13.570;2023-07-13T15:49:24;28.50;26.60
72940;DHT22;61094;51.154;13.570;2023-07-13T15:54:28;28.20;26.70
72940;DHT22;61094;51.154;13.570;2023-07-13T15:59:31;28.20;26.70
72940;DHT22;61094;51.154;13.570;2023-07-13T16:04:33;28.00;26.40
72940;DHT22;61094;51.154;13.570;2023-07-13T16:09:36;27.90;26.90
72940;DHT22;61094;51.154;13.570;2023-07-13T16:14:38;27.80;27.00
72940;DHT22;61094;51.154;13.570;2023-07-13T16:19:41;27.60;26.90
72940;DHT22;61094;51.154;13.570;2023-07-13T16:24:45;27.50;27.30
72940;DHT22;61094;51.154;13.570;2023-07-13T16:29:47;27.30;27.60
72940;DHT22;61094;51.154;13.570;2023-07-13T16:34:49;27.50;28.00
72940;DHT22;61094;51.154;13.570;2023-07-13T16:39:54;27.50;27.40
72940;DHT22;61094;51.154;13.570;2023-07-13T16:44:58;27.40;27.70
72940;DHT22;61094;51.154;13.570;2023-07-13T16:49:59;27.30;27.70
72940;DHT22;61094;51.154;13.570;2023-07-13T16:55:09;27.20;27.40
72940;DHT22;61094;51.154;13.570;2023-07-13T17:00:25;26.90;27.80
72940;DHT22;61094;51.154;13.570;2023-07-13T17:05:30;26.80;28.00
72940;DHT22;61094;51.154;13.570;2023-07-13T17:10:34;26.60;28.70
72940;DHT22;61094;51.154;13.570;2023-07-13T17:15:36;26.60;28.40
72940;DHT22;61094;51.154;13.570;2023-07-13T17:20:40;26.60;28.30
72940;DHT22;61094;51.154;13.570;2023-07-13T17:25:47;26.50;28.20
72940;DHT22;61094;51.154;13.570;2023-07-13T17:30:51;26.50;28.50
72940;DHT22;61094;51.154;13.570;2023-07-13T17:35:54;26.50;28.70
72940;DHT22;61094;51.154;13.570;2023-07-13T17:40:59;26.60;29.00
72940;DHT22;61094;51.154;13.570;2023-07-13T17:46:02;26.50;28.60
72940;DHT22;61094;51.154;13.570;2023-07-13T17:51:03;26.30;28.80
72940;DHT22;61094;51.154;13.570;2023-07-13T17:56:08;26.10;28.60
72940;DHT22;61094;51.154;13.570;2023-07-13T18:01:12;25.90;28.80
72940;DHT22;61094;51.154;13.570;2023-07-13T18:06:25;25.70;29.10
72940;DHT22;61094;51.154;13.570;2023-07-13T18:11:31;25.50;29.40
72940;DHT22;61094;51.154;13.570;2023-07-13T18:16:33;25.30;29.40
72940;DHT22;61094;51.154;13.570;2023-07-13T18:21:36;25.30;29.70
72940;DHT22;61094;51.154;13.570;2023-07-13T18:26:39;25.10;29.80
72940;DHT22;61094;51.154;13.570;2023-07-13T18:31:42;25.00;30.00
72940;DHT22;61094;51.154;13.570;2023-07-13T18:36:44;24.80;30.20
72940;DHT22;61094;51.154;13.570;2023-07-13T18:41:48;24.70;30.50
72940;DHT22;61094;51.154;13.570;2023-07-13T18:46:50;24.50;30.70
72940;DHT22;61094;51.154;13.570;2023-07-13T18:51:52;24.40;31.00
72940;DHT22;61094;51.154;13.570;2023-07-13T18:56:55;24.30;31.30
72940;DHT22;61094;51.154;13.570;2023-07-13T19:01:57;24.10;31.60
72940;DHT22;61094;51.154;13.570;2023-07-13T19:06:59;24.00;31.80
72940;DHT22;61094;51.154;13.570;2023-07-13T19:12:02;23.80;32.30
72940;DHT22;61094;51.154;13.570;2023-07-13T19:17:04;23.60;32.50
72940;DHT22;61094;51.154;13.570;2023-07-13T19:22:07;23.50;32.80
72940;DHT22;61094;51.154;13.570;2023-07-13T19:27:13;23.30;33.00
72940;DHT22;61094;51.154;13.570;2023-07-13T19:32:15;23.20;33.50
72940;DHT22;61094;51.154;13.570;2023-07-13T19:37:20;23.00;33.50
72940;DHT22;61094;51.154;13.570;2023-07-13T19:42:25;22.90;34.20
72940;DHT22;61094;51.154;13.570;2023-07-13T19:47:27;22.70;35.10
72940;DHT22;61094;51.154;13.570;2023-07-13T19:52:29;22.60;35.10
72940;DHT22;61094;51.154;13.570;2023-07-13T19:57:32;22.40;35.70
72940;DHT22;61094;51.154;13.570;2023-07-13T20:02:34;22.20;36.50
72940;DHT22;61094;51.154;13.570;2023-07-13T20:07:36;22.00;35.70
72940;DHT22;61094;51.154;13.570;2023-07-13T20:12:39;21.80;37.10
72940;DHT22;61094;51.154;13.570;2023-07-13T20:17:41;21.70;37.60
72940;DHT22;61094;51.154;13.570;2023-07-13T20:22:44;21.60;38.00
72940;DHT22;61094;51.154;13.570;2023-07-13T20:27:47;21.40;37.90
72940;DHT22;61094;51.154;13.570;2023-07-13T20:32:49;21.40;38.70
72940;DHT22;61094;51.154;13.570;2023-07-13T20:37:51;21.30;39.70
72940;DHT22;61094;51.154;13.570;2023-07-13T20:42:55;21.20;39.50
72940;DHT22;61094;51.154;13.570;2023-07-13T20:48:00;21.00;39.50
72940;DHT22;61094;51.154;13.570;2023-07-13T20:53:02;20.90;39.90
72940;DHT22;61094;51.154;13.570;2023-07-13T20:58:06;20.80;40.80
72940;DHT22;61094;51.154;13.570;2023-07-13T21:03:19;20.70;41.00
72940;DHT22;61094;51.154;13.570;2023-07-13T21:08:25;20.80;40.80
72940;DHT22;61094;51.154;13.570;2023-07-13T21:13:28;20.70;41.60
72940;DHT22;61094;51.154;13.570;2023-07-13T21:18:30;20.70;41.60
72940;DHT22;61094;51.154;13.570;2023-07-13T21:23:34;20.60;43.80
72940;DHT22;61094;51.154;13.570;2023-07-13T21:28:41;20.60;44.40
72940;DHT22;61094;51.154;13.570;2023-07-13T21:33:43;20.50;45.90
72940;DHT22;61094;51.154;13.570;2023-07-13T21:38:45;20.50;47.40
72940;DHT22;61094;51.154;13.570;2023-07-13T21:43:48;20.40;48.60
72940;DHT22;61094;51.154;13.570;2023-07-13T21:48:50;20.20;45.40
72940;DHT22;61094;51.154;13.570;2023-07-13T21:53:53;20.10;49.90
72940;DHT22;61094;51.154;13.570;2023-07-13T21:58:56;20.00;52.30
72940;DHT22;61094;51.154;13.570;2023-07-13T22:03:59;20.00;53.50
72940;DHT22;61094;51.154;13.570;2023-07-13T22:09:00;20.00;52.60
72940;DHT22;61094;51.154;13.570;2023-07-13T22:14:04;19.90;53.70
72940;DHT22;61094;51.154;13.570;2023-07-13T22:19:12;19.90;55.00
72940;DHT22;61094;51.154;13.570;2023-07-13T22:24:16;19.80;55.90
72940;DHT22;61094;51.154;13.570;2023-07-13T22:29:21;19.70;53.80
72940;DHT22;61094;51.154;13.570;2023-07-13T22:34:24;19.60;58.00
72940;DHT22;61094;51.154;13.570;2023-07-13T22:39:32;19.60;54.90
72940;DHT22;61094;51.154;13.570;2023-07-13T22:44:35;19.60;50.50
72940;DHT22;61094;51.154;13.570;2023-07-13T22:49:37;19.50;56.30
72940;DHT22;61094;51.154;13.570;2023-07-13T22:54:39;19.60;55.90
72940;DHT22;61094;51.154;13.570;2023-07-13T22:59:43;19.50;57.20
72940;DHT22;61094;51.154;13.570;2023-07-13T23:04:44;19.60;56.10
72940;DHT22;61094;51.154;13.570;2023-07-13T23:09:49;19.70;58.30
72940;DHT22;61094;51.154;13.570;2023-07-13T23:14:52;19.70;59.10
72940;DHT22;61094;51.154;13.570;2023-07-13T23:19:54;19.70;57.00
72940;DHT22;61094;51.154;13.570;2023-07-13T23:24:56;19.70;55.50
72940;DHT22;61094;51.154;13.570;2023-07-13T23:29:59;19.70;57.90
72940;DHT22;61094;51.154;13.570;2023-07-13T23:35:01;19.60;61.70
72940;DHT22;61094;51.154;13.570;2023-07-13T23:40:12;19.50;59.90
72940;DHT22;61094;51.154;13.570;2023-07-13T23:45:17;19.30;64.80
72940;DHT22;61094;51.154;13.570;2023-07-13T23:50:21;19.30;64.70
72940;DHT22;61094;51.154;13.570;2023-07-13T23:55:26;19.20;63.00
